メインページ
METAR-TAF:

METAR-TAF

空港 :

グアム国際空港

ハガニア, グアム, アメリカ合衆国

緯度: 13-29N, 経度: 144-48E, 海抜: 91m

現時点の気象観測

当レポートは14分前の23:54(UTC)に作成
南東の風 4kt
気温 29°C
湿度 84%
気圧 1011 hPa
視程: 16.1km
高度1800ftの雲は散在している
高度2600ftの千切れ雲あり
高度3500ftの千切れ雲あり

METAR: PGUM 162354Z 13004KT 10SM SCT018 BKN026 BKN035 29/26 A2986 RMK AO2 SLP103 T02940261 10294 20256 51010

時間: 10:08 (00:08 UTC)

予報

当レポートは16分前の23:52(UTC)に作成
予報は17日の 00時(UTC)から 18日の 06時(UTC)まで有効
の風 8kt
視程: 10km
高度1500ftの雲は散在している
高度4000ftの雲は散在している
高度12000ftの千切れ雲あり
近辺でにわか雨
17日の 00時(UTC)から 17日の 02時(UTC)まで一時的に
高度2500ftの千切れ雲あり

TAF: PGUM 162352Z 1700/1806 17008KT P6SM VCSH SCT015 SCT040 BKN120 TEMPO 1700/1702 BKN025

4,000以上の空港の気象観測と天気予報(METAR報とTAF報)

利用可能な観測所は地図上に黄色い丸と赤い丸で示す。

丸の上にカーソルを重ねると観測所名を参照できる。

次にクリックすると気象観測と天気予報を参照できる。

マップの切り替え:黒色「×」印の緑ボタンをクリックして拡大、「-」印の緑ボタンをクリックして縮小、緑色の三角印をクリックして隣りの地図に切り替え


METAR-TAF: